Time;durP1;ratioP1;P1;durP2;ratioP2;P2;SDS_P1;SDS_P2;PMS_P1;PMS_P2;Temp;Humidity;BMP_temperature;BMP_pressure;BME280_temperature;BME280_humidity;BME280_pressure;Samples;Min_cycle;Max_cycle;Signal;HPM_P1;HPM_P2
2021/03/28 00:00:31;;;;;;;9.40;1.00;;;7.40;99.90;;;;;;6163417;23;20032;-79
2021/03/28 00:03:02;;;;;;;12.32;1.10;;;7.40;99.90;;;;;;6187972;23;20027;-77
2021/03/28 00:05:33;;;;;;;6.55;0.40;;;7.40;99.90;;;;;;6162625;23;20005;-77
2021/03/28 00:08:02;;;;;;;5.90;0.93;;;7.70;99.90;;;;;;6163004;23;20001;-75
2021/03/28 00:10:36;;;;;;;11.52;0.60;;;7.50;99.90;;;;;;6188188;23;20004;-78
2021/03/28 00:15:58;;;;;;;28.02;1.50;;;7.40;99.90;;;;;;6167987;23;20030;-77
2021/03/28 00:18:36;;;;;;;16.58;0.73;;;7.50;99.90;;;;;;6133541;23;20341;-78
2021/03/28 00:21:18;;;;;;;7.78;0.88;;;7.50;99.90;;;;;;6158338;23;20002;-76
2021/03/28 00:23:52;;;;;;;6.40;1.40;;;7.50;99.90;;;;;;6158576;23;20021;-76
2021/03/28 00:26:33;;;;;;;10.93;1.45;;;7.50;99.90;;;;;;6160190;23;20001;-79
2021/03/28 00:29:10;;;;;;;9.75;0.73;;;7.40;99.90;;;;;;6133273;23;20040;-77
2021/03/28 00:31:52;;;;;;;6.65;0.47;;;7.50;99.90;;;;;;6159877;23;20048;-78
2021/03/28 00:34:18;;;;;;;7.38;1.63;;;7.60;99.90;;;;;;6159371;23;20008;-78
2021/03/28 00:36:53;;;;;;;12.02;0.35;;;7.60;99.90;;;;;;6159424;23;20022;-78
2021/03/28 00:39:43;;;;;;;7.32;0.40;;;7.60;99.90;;;;;;6138201;23;20091;-79
2021/03/28 00:42:21;;;;;;;8.93;0.60;;;7.60;99.90;;;;;;6133507;23;20544;-78
2021/03/28 00:44:55;;;;;;;5.43;0.98;;;7.60;99.90;;;;;;6132118;23;20013;-77
2021/03/28 00:47:24;;;;;;;11.02;0.30;;;7.50;99.90;;;;;;6159541;23;20005;-77
2021/03/28 00:50:01;;;;;;;;;;;7.50;99.90;;;;;;6159937;23;20009;-77
2021/03/28 00:52:33;;;;;;;8.43;0.40;;;7.50;99.90;;;;;;6132885;23;20328;-76
2021/03/28 00:55:11;;;;;;;15.85;2.08;;;7.50;99.90;;;;;;6157816;23;19998;-78
2021/03/28 00:57:42;;;;;;;9.32;1.42;;;7.40;99.90;;;;;;6159278;23;20019;-80
2021/03/28 01:00:49;;;;;;;9.77;1.00;;;7.40;99.90;;;;;;6133679;23;19997;-80
2021/03/28 01:03:36;;;;;;;12.05;0.98;;;7.40;99.90;;;;;;6158380;23;20009;-76
2021/03/28 01:06:26;;;;;;;8.98;0.47;;;7.30;99.90;;;;;;6160837;23;20009;-80
2021/03/28 01:09:15;;;;;;;15.13;1.45;;;7.30;99.90;;;;;;6137573;23;20013;-78
2021/03/28 01:11:54;;;;;;;6.70;0.20;;;7.30;99.90;;;;;;6090836;23;20092;-78
2021/03/28 01:14:48;;;;;;;8.05;0.75;;;7.30;99.90;;;;;;6133292;23;20089;-79
2021/03/28 01:17:24;;;;;;;12.20;0.65;;;7.30;99.90;;;;;;6133158;23;20476;-78
2021/03/28 01:20:14;;;;;;;5.68;1.20;;;7.30;99.90;;;;;;6159021;23;20016;-78
2021/03/28 01:22:45;;;;;;;10.45;0.73;;;7.20;99.90;;;;;;6132643;23;20132;-78
2021/03/28 01:25:31;;;;;;;12.40;0.75;;;7.20;99.90;;;;;;6131477;23;20006;-78
2021/03/28 01:28:04;;;;;;;7.25;0.40;;;7.20;99.90;;;;;;6157858;23;20029;-78
2021/03/28 01:30:44;;;;;;;13.10;1.35;;;7.20;99.90;;;;;;6157621;23;20001;-79
2021/03/28 01:33:36;;;;;;;17.05;1.38;;;7.20;99.90;;;;;;6131148;23;20010;-78
2021/03/28 01:36:19;;;;;;;7.78;0.80;;;7.20;99.90;;;;;;6131687;23;20080;-78
2021/03/28 01:38:57;;;;;;;7.32;0.85;;;7.20;99.90;;;;;;6157259;23;20001;-78
2021/03/28 01:41:27;;;;;;;15.63;1.75;;;7.20;99.90;;;;;;6131420;23;20044;-78
2021/03/28 01:44:16;;;;;;;14.93;0.98;;;7.20;99.90;;;;;;6132169;23;20448;-78
2021/03/28 01:46:55;;;;;;;11.45;0.35;;;7.20;99.90;;;;;;6132283;23;20048;-78
2021/03/28 01:49:46;;;;;;;6.55;0.32;;;7.20;99.90;;;;;;6157942;23;20089;-78
2021/03/28 01:52:37;;;;;;;8.95;0.47;;;7.10;99.90;;;;;;6159738;23;20003;-77
2021/03/28 01:55:13;;;;;;;12.32;1.45;;;7.00;99.90;;;;;;6134094;23;20006;-79
2021/03/28 01:58:08;;;;;;;10.60;0.88;;;7.00;99.90;;;;;;6158888;23;20080;-78
2021/03/28 02:00:36;;;;;;;12.63;0.90;;;7.10;99.90;;;;;;6132452;23;20123;-76
2021/03/28 02:03:08;;;;;;;7.50;0.52;;;7.10;99.90;;;;;;6160477;23;20001;-79
2021/03/28 02:05:34;;;;;;;6.20;1.02;;;7.10;99.90;;;;;;6135127;23;20357;-79
2021/03/28 02:08:28;;;;;;;15.02;0.90;;;7.10;99.90;;;;;;6159675;23;20007;-79
2021/03/28 02:11:26;;;;;;;8.38;0.55;;;7.10;99.90;;;;;;6156291;23;20005;-79
2021/03/28 02:13:55;;;;;;;6.37;0.60;;;7.10;99.90;;;;;;6131370;23;20025;-79
2021/03/28 02:16:54;;;;;;;2.75;0.60;;;7.00;99.90;;;;;;6157664;23;20421;-78
2021/03/28 02:19:35;;;;;;;10.68;0.70;;;7.00;99.90;;;;;;6158189;23;20002;-79
2021/03/28 02:22:19;;;;;;;9.43;0.80;;;7.00;99.90;;;;;;6157967;23;20016;-79
2021/03/28 02:25:24;;;;;;;17.75;0.95;;;7.00;99.90;;;;;;6132486;23;20361;-79
2021/03/28 02:28:27;;;;;;;8.23;0.60;;;7.00;99.90;;;;;;6133404;23;20005;-79
2021/03/28 02:31:01;;;;;;;7.20;0.57;;;7.00;99.90;;;;;;6133120;23;20002;-79
2021/03/28 02:33:41;;;;;;;13.80;1.38;;;7.00;99.90;;;;;;6133714;23;20009;-79
2021/03/28 02:36:23;;;;;;;17.60;1.63;;;7.00;99.90;;;;;;6134463;23;19997;-79
2021/03/28 02:39:08;;;;;;;11.65;1.27;;;6.90;99.90;;;;;;6168051;23;20041;-78
2021/03/28 02:42:01;;;;;;;13.50;2.22;;;6.90;99.90;;;;;;6162078;23;20009;-77
2021/03/28 02:44:52;;;;;;;13.93;1.17;;;6.90;99.90;;;;;;6187939;23;20008;-77
2021/03/28 02:47:39;;;;;;;5.70;0.75;;;6.90;99.90;;;;;;6188961;23;20336;-77
2021/03/28 02:50:46;;;;;;;16.05;1.23;;;6.90;99.90;;;;;;6187494;23;20082;-79
2021/03/28 02:53:29;;;;;;;11.02;1.50;;;6.80;99.90;;;;;;6161559;23;20444;-77
2021/03/28 02:56:31;;;;;;;12.82;1.58;;;6.90;99.90;;;;;;6161982;23;19997;-79
2021/03/28 02:59:17;;;;;;;9.10;1.08;;;6.90;99.90;;;;;;6155996;23;20005;-78
2021/03/28 03:02:19;;;;;;;10.98;2.08;;;6.80;99.90;;;;;;6187160;23;20420;-77
2021/03/28 03:04:51;;;;;;;11.15;0.80;;;6.80;99.90;;;;;;6161454;23;20352;-78
2021/03/28 03:07:51;;;;;;;8.93;1.02;;;6.70;99.90;;;;;;6186892;23;20009;-78
2021/03/28 03:10:54;;;;;;;13.32;2.08;;;6.80;99.90;;;;;;6189598;23;20005;-78
2021/03/28 03:13:48;;;;;;;11.32;1.20;;;6.80;99.90;;;;;;6164238;23;20008;-79
2021/03/28 03:16:28;;;;;;;10.80;0.85;;;6.70;99.90;;;;;;6190150;23;19997;-79
2021/03/28 03:19:17;;;;;;;7.68;1.27;;;6.70;99.90;;;;;;6192522;23;20004;-79
2021/03/28 03:22:25;;;;;;;10.68;1.35;;;6.70;99.90;;;;;;6194279;23;20009;-79
2021/03/28 03:24:57;;;;;;;8.02;1.13;;;6.80;99.90;;;;;;6166739;23;20109;-79
2021/03/28 03:27:53;;;;;;;7.00;1.02;;;6.80;99.90;;;;;;6193597;23;20009;-79
2021/03/28 03:30:27;;;;;;;8.18;0.93;;;6.70;99.90;;;;;;6187016;23;20012;-78
2021/03/28 03:33:42;;;;;;;12.95;1.02;;;6.60;99.90;;;;;;6161176;23;20024;-78
2021/03/28 03:36:30;;;;;;;6.75;1.08;;;6.50;99.90;;;;;;6161499;23;20341;-79
2021/03/28 03:39:11;;;;;;;9.80;1.10;;;6.50;99.90;;;;;;6160775;23;20380;-77
2021/03/28 03:41:54;;;;;;;7.68;1.02;;;6.60;99.90;;;;;;6189265;23;20012;-80
2021/03/28 03:48:04;;;;;;;15.05;1.35;;;6.50;99.90;;;;;;6188997;23;20059;-76
2021/03/28 03:50:51;;;;;;;9.60;1.60;;;6.40;99.90;;;;;;6186520;23;20001;-78
2021/03/28 03:53:27;;;;;;;7.50;1.15;;;6.50;99.90;;;;;;6189392;23;20036;-78
2021/03/28 03:56:15;;;;;;;12.93;1.00;;;6.50;99.90;;;;;;6141861;23;19997;-76
2021/03/28 03:58:59;;;;;;;9.73;2.33;;;6.50;99.90;;;;;;6060750;23;20064;-78
2021/03/28 04:01:36;;;;;;;9.35;1.50;;;6.50;99.90;;;;;;6131211;23;20006;-78
2021/03/28 04:04:17;;;;;;;9.27;1.05;;;6.50;99.90;;;;;;6130875;23;20048;-77
2021/03/28 04:07:37;;;;;;;7.35;0.75;;;6.50;99.90;;;;;;6157797;23;20025;-78
2021/03/28 04:10:27;;;;;;;7.20;1.13;;;6.50;99.90;;;;;;5985766;23;20004;-79
2021/03/28 04:13:30;;;;;;;7.78;0.80;;;6.50;99.90;;;;;;6151434;23;20312;-78
2021/03/28 04:16:06;;;;;;;5.45;0.52;;;6.40;99.90;;;;;;6157095;23;20005;-78
2021/03/28 04:18:54;;;;;;;10.23;0.90;;;6.40;99.90;;;;;;6130307;23;20001;-77
2021/03/28 04:21:41;;;;;;;6.82;0.88;;;6.40;99.90;;;;;;6159261;23;20002;-78
2021/03/28 04:24:27;;;;;;;10.32;1.40;;;6.30;99.90;;;;;;6132016;23;20001;-78
2021/03/28 04:27:17;;;;;;;6.03;1.00;;;6.30;99.90;;;;;;6159781;23;20038;-77
2021/03/28 04:29:48;;;;;;;5.80;0.60;;;6.30;99.90;;;;;;6158633;23;20048;-78
2021/03/28 04:32:50;;;;;;;9.77;0.75;;;6.20;99.90;;;;;;6132445;23;20002;-79
2021/03/28 04:38:22;;;;;;;9.50;1.08;;;6.10;99.90;;;;;;6160692;23;20392;-78
2021/03/28 04:41:13;;;;;;;6.80;0.50;;;6.10;99.90;;;;;;6183381;23;20005;-77
2021/03/28 04:44:11;;;;;;;7.25;1.00;;;6.10;99.90;;;;;;6160789;23;20071;-77
2021/03/28 04:47:01;;;;;;;10.93;0.73;;;6.10;99.90;;;;;;6132181;23;20006;-80
2021/03/28 04:49:57;;;;;;;6.43;0.43;;;6.10;99.90;;;;;;6129655;23;20002;-78
2021/03/28 04:52:56;;;;;;;7.53;0.50;;;6.20;99.90;;;;;;6155492;23;20005;-80
2021/03/28 04:55:40;;;;;;;5.70;0.50;;;6.20;99.90;;;;;;6131818;23;20056;-77
2021/03/28 04:58:41;;;;;;;13.10;0.73;;;6.20;99.90;;;;;;6130583;23;20068;-76
2021/03/28 05:01:41;;;;;;;6.10;0.80;;;6.20;99.90;;;;;;6152741;23;20089;-77
2021/03/28 05:04:34;;;;;;;3.90;0.50;;;6.20;99.90;;;;;;6152297;23;20009;-79
2021/03/28 05:07:08;;;;;;;11.55;0.75;;;6.30;99.90;;;;;;6155761;23;20377;-78
2021/03/28 05:09:54;;;;;;;9.52;0.93;;;6.40;99.90;;;;;;6155009;23;20021;-78
2021/03/28 05:12:47;;;;;;;12.27;0.52;;;6.40;99.90;;;;;;6129686;23;20009;-77
2021/03/28 05:15:25;;;;;;;6.70;0.88;;;6.40;99.90;;;;;;6153916;23;20342;-79
2021/03/28 05:18:31;;;;;;;6.78;0.50;;;6.40;99.90;;;;;;6172277;22;20051;-76
2021/03/28 05:21:14;;;;;;;4.38;0.17;;;6.40;99.90;;;;;;6188868;23;20089;-76
2021/03/28 05:24:17;;;;;;;4.53;0.30;;;6.40;99.90;;;;;;6162340;23;19997;-76
2021/03/28 05:27:07;;;;;;;5.38;0.88;;;6.50;99.90;;;;;;6131137;23;20512;-75
2021/03/28 05:30:10;;;;;;;6.80;0.60;;;6.60;99.90;;;;;;6157468;23;20479;-77
2021/03/28 05:33:10;;;;;;;13.18;0.55;;;6.70;99.90;;;;;;6158131;23;20010;-76
2021/03/28 05:36:13;;;;;;;5.70;0.88;;;6.80;99.90;;;;;;6158052;23;20008;-77
2021/03/28 05:38:54;;;;;;;5.85;0.40;;;6.90;99.90;;;;;;6131167;23;20025;-76
2021/03/28 05:41:31;;;;;;;4.28;0.25;;;6.90;99.90;;;;;;6156958;23;20029;-77
2021/03/28 05:44:18;;;;;;;4.70;0.30;;;7.00;99.90;;;;;;6130893;23;20020;-76
2021/03/28 05:47:21;;;;;;;6.65;0.52;;;7.10;99.90;;;;;;6131605;23;20006;-78
2021/03/28 05:50:21;;;;;;;11.30;0.60;;;7.20;99.90;;;;;;6131234;23;20010;-77
2021/03/28 05:53:14;;;;;;;13.73;0.55;;;7.20;99.90;;;;;;6130740;23;20041;-76
2021/03/28 05:56:15;;;;;;;5.93;0.63;;;7.30;99.90;;;;;;6156979;23;20432;-76
2021/03/28 05:59:00;;;;;;;15.40;1.67;;;7.40;99.90;;;;;;6156027;23;20006;-75
2021/03/28 06:01:50;;;;;;;5.40;0.28;;;7.40;99.90;;;;;;6157295;23;20016;-76
2021/03/28 06:04:52;;;;;;;6.20;0.63;;;7.40;99.90;;;;;;6131046;23;20006;-77
2021/03/28 06:07:50;;;;;;;2.15;0.47;;;7.50;99.90;;;;;;6158720;23;20425;-78
2021/03/28 06:10:27;;;;;;;2.27;0.70;;;7.60;99.90;;;;;;6086242;23;20036;-75
2021/03/28 06:13:04;;;;;;;8.23;0.90;;;7.60;99.90;;;;;;6158577;23;20025;-76
2021/03/28 06:16:04;;;;;;;9.73;0.38;;;7.70;99.90;;;;;;6159178;23;20001;-79
2021/03/28 06:18:55;;;;;;;10.52;0.85;;;10.10;99.90;;;;;;6100066;22;20333;-77
2021/03/28 06:21:39;;;;;;;5.18;0.30;;;7.60;99.90;;;;;;6131625;23;20315;-78
2021/03/28 06:24:31;;;;;;;10.50;0.73;;;7.60;99.90;;;;;;6130590;23;20008;-78
2021/03/28 06:27:02;;;;;;;5.72;0.68;;;7.60;99.90;;;;;;6129178;23;20492;-79
2021/03/28 06:30:19;;;;;;;9.25;1.08;;;7.60;99.90;;;;;;6101671;23;20006;-76
2021/03/28 06:33:16;;;;;;;5.40;0.70;;;7.50;99.90;;;;;;6128754;23;20434;-77
2021/03/28 06:35:53;;;;;;;10.10;1.02;;;7.40;99.90;;;;;;6128544;23;20444;-79
2021/03/28 06:38:31;;;;;;;6.50;0.43;;;7.50;99.90;;;;;;6128462;23;20002;-78
2021/03/28 06:41:06;;;;;;;9.48;0.60;;;7.50;99.90;;;;;;6158382;23;20021;-78
2021/03/28 06:44:05;;;;;;;4.72;0.75;;;7.40;99.90;;;;;;6162904;23;20068;-79
2021/03/28 06:47:07;;;;;;;3.67;0.35;;;7.50;99.90;;;;;;6162657;23;20009;-78
2021/03/28 06:49:54;;;;;;;6.55;0.35;;;7.60;99.90;;;;;;6112932;23;20068;-81
2021/03/28 06:52:52;;;;;;;10.27;0.68;;;8.10;99.90;;;;;;6194213;23;20015;-81
2021/03/28 06:55:40;;;;;;;5.07;0.83;;;7.70;99.90;;;;;;6165306;23;20076;-79
2021/03/28 06:58:43;;;;;;;8.27;0.95;;;7.90;99.90;;;;;;6192161;23;20072;-80
2021/03/28 07:01:30;;;;;;;6.15;0.22;;;8.00;99.90;;;;;;6192270;23;20057;-79
2021/03/28 07:04:10;;;;;;;7.20;0.35;;;8.20;99.90;;;;;;6163997;23;20021;-78
2021/03/28 07:07:07;;;;;;;7.20;0.45;;;8.40;99.90;;;;;;6192334;23;20376;-80
2021/03/28 07:10:01;;;;;;;9.50;0.70;;;8.60;99.90;;;;;;6161718;23;20332;-79
2021/03/28 07:12:51;;;;;;;3.22;0.60;;;8.70;99.90;;;;;;6192572;23;20008;-80
2021/03/28 07:15:36;;;;;;;3.00;0.30;;;8.90;99.90;;;;;;6165170;23;20008;-79
2021/03/28 07:18:26;;;;;;;1.77;0.13;;;9.00;99.90;;;;;;6163519;23;20376;-80
2021/03/28 07:21:23;;;;;;;4.85;0.60;;;9.00;99.90;;;;;;6161827;23;20001;-80
2021/03/28 07:24:26;;;;;;;11.80;2.15;;;9.00;99.90;;;;;;6164854;23;20055;-80
2021/03/28 07:27:18;;;;;;;10.15;1.05;;;9.10;99.90;;;;;;6165134;23;20428;-79
2021/03/28 07:30:08;;;;;;;4.05;0.73;;;9.10;99.90;;;;;;6164710;23;20009;-81
2021/03/28 07:32:58;;;;;;;6.90;0.73;;;9.20;99.90;;;;;;6165886;23;20503;-79
2021/03/28 07:35:56;;;;;;;3.92;0.40;;;9.30;99.90;;;;;;6160431;23;20001;-76
2021/03/28 07:39:14;;;;;;;3.72;0.20;;;9.30;99.90;;;;;;6186598;23;20084;-77
2021/03/28 07:41:58;;;;;;;2.25;0.30;;;9.30;99.90;;;;;;6080241;23;20016;-77
2021/03/28 07:44:43;;;;;;;5.80;0.82;;;9.30;99.90;;;;;;6186489;23;20012;-77
2021/03/28 07:47:42;;;;;;;7.07;0.68;;;9.40;99.90;;;;;;6161361;23;20402;-75
2021/03/28 07:50:22;;;;;;;7.20;0.65;;;9.60;99.90;;;;;;6186287;23;20081;-76
2021/03/28 07:53:14;;;;;;;6.35;0.73;;;9.70;99.90;;;;;;6186855;23;20005;-75
2021/03/28 07:56:11;;;;;;;8.50;0.63;;;9.80;99.90;;;;;;6188256;23;19997;-77
2021/03/28 07:59:04;;;;;;;8.05;0.82;;;10.00;99.90;;;;;;6163454;23;20056;-76
2021/03/28 08:01:48;;;;;;;7.70;0.40;;;9.90;99.90;;;;;;6189177;23;20032;-74
2021/03/28 08:04:41;;;;;;;2.97;0.35;;;9.90;99.90;;;;;;6161692;23;20499;-76
2021/03/28 08:07:44;;;;;;;6.40;0.57;;;10.00;99.90;;;;;;6188361;23;20072;-77
2021/03/28 08:10:43;;;;;;;4.57;0.55;;;9.90;99.90;;;;;;6161862;23;20028;-77
2021/03/28 08:13:27;;;;;;;9.55;0.60;;;10.00;99.90;;;;;;6191766;23;20490;-77
2021/03/28 08:16:21;;;;;;;7.90;0.93;;;10.10;99.90;;;;;;6163000;23;20006;-76
2021/03/28 08:19:08;;;;;;;3.22;0.20;;;10.30;99.90;;;;;;6162275;23;20004;-79
2021/03/28 08:21:42;;;;;;;6.80;0.98;;;10.40;99.90;;;;;;6189008;23;20009;-79
2021/03/28 08:24:26;;;;;;;6.03;0.95;;;10.40;99.70;;;;;;6187562;23;20001;-77
2021/03/28 08:27:06;;;;;;;6.35;0.77;;;10.40;99.70;;;;;;6187977;23;20005;-78
2021/03/28 08:29:59;;;;;;;2.58;0.35;;;10.40;96.90;;;;;;6162102;23;20440;-77
2021/03/28 08:32:40;;;;;;;4.40;0.20;;;10.40;97.20;;;;;;6163288;23;20031;-78
2021/03/28 08:35:32;;;;;;;9.68;1.13;;;10.60;96.80;;;;;;6189214;23;20008;-78
2021/03/28 08:38:38;;;;;;;5.22;0.60;;;10.60;95.90;;;;;;6115547;23;20005;-79
2021/03/28 08:41:32;;;;;;;10.30;1.38;;;10.70;95.10;;;;;;6189673;23;20440;-77
2021/03/28 08:44:26;;;;;;;9.18;1.35;;;10.80;94.70;;;;;;6161829;23;20025;-76
2021/03/28 08:47:16;;;;;;;3.40;0.15;;;10.80;93.80;;;;;;6189984;23;19998;-79
2021/03/28 08:49:54;;;;;;;8.38;0.75;;;10.70;93.80;;;;;;6164255;23;20001;-76
2021/03/28 08:52:54;;;;;;;3.95;1.08;;;10.70;93.90;;;;;;6190315;22;20025;-78
2021/03/28 08:56:07;;;;;;;4.25;0.30;;;10.80;93.30;;;;;;6162090;23;20340;-76
2021/03/28 08:58:46;;;;;;;11.77;1.08;;;10.80;92.30;;;;;;6190890;23;20020;-79
2021/03/28 09:01:23;;;;;;;3.65;0.30;;;11.00;92.60;;;;;;6163996;22;19997;-76
2021/03/28 09:04:00;;;;;;;9.20;0.68;;;10.40;91.90;;;;;;6189724;23;20005;-78
2021/03/28 09:06:40;;;;;;;6.82;0.70;;;11.20;92.40;;;;;;6160821;23;20460;-78
2021/03/28 09:09:23;;;;;;;5.40;0.15;;;11.70;90.70;;;;;;6187436;23;20001;-78
2021/03/28 09:12:17;;;;;;;5.18;0.57;;;11.70;88.50;;;;;;6160762;23;20009;-76
2021/03/28 09:15:18;;;;;;;5.82;0.20;;;11.70;88.90;;;;;;6187291;23;20108;-79
2021/03/28 09:18:12;;;;;;;5.10;0.47;;;11.70;88.20;;;;;;6190546;23;20001;-80
2021/03/28 09:20:53;;;;;;;4.30;0.00;;;11.70;86.40;;;;;;6165486;23;20001;-80
2021/03/28 09:23:38;;;;;;;8.88;0.40;;;11.60;84.70;;;;;;6163181;23;20507;-80
2021/03/28 09:26:18;;;;;;;7.82;1.05;;;11.60;87.80;;;;;;6195866;23;20038;-80
2021/03/28 09:29:33;;;;;;;8.85;0.57;;;11.60;83.20;;;;;;6190574;23;20416;-78
2021/03/28 09:32:34;;;;;;;3.17;0.05;;;11.70;82.50;;;;;;6163430;23;20015;-77
2021/03/28 09:35:03;;;;;;;5.20;0.85;;;11.70;82.70;;;;;;6187305;23;20076;-76
2021/03/28 09:37:59;;;;;;;2.17;0.22;;;11.60;79.70;;;;;;6185943;22;20017;-80
2021/03/28 09:40:27;;;;;;;6.28;0.40;;;11.60;79.80;;;;;;6133932;23;20005;-78
2021/03/28 09:43:06;;;;;;;9.75;0.38;;;11.60;78.80;;;;;;6133181;23;20044;-80
2021/03/28 09:45:50;;;;;;;4.53;0.45;;;11.60;78.60;;;;;;6159379;23;20337;-76
2021/03/28 09:51:29;;;;;;;6.82;0.65;;;11.60;80.20;;;;;;6158951;23;20104;-75
2021/03/28 09:54:13;;;;;;;6.55;0.25;;;11.70;78.90;;;;;;6158080;23;20010;-76
2021/03/28 09:57:16;;;;;;;4.05;0.38;;;11.60;80.30;;;;;;6101925;23;20065;-77
2021/03/28 09:59:48;;;;;;;4.13;0.10;;;11.70;80.70;;;;;;6175499;23;20048;-79
2021/03/28 10:02:40;;;;;;;7.97;1.15;;;11.60;79.80;;;;;;6163904;23;20005;-78
2021/03/28 10:05:31;;;;;;;4.68;0.25;;;11.60;80.10;;;;;;6164631;23;20009;-80
2021/03/28 10:08:18;;;;;;;4.05;1.17;;;11.60;81.50;;;;;;6163087;23;20008;-79
2021/03/28 10:10:52;;;;;;;7.82;0.63;;;11.50;83.10;;;;;;6162011;23;20029;-79
2021/03/28 10:13:39;;;;;;;4.35;0.28;;;10.90;82.10;;;;;;6162243;23;20009;-78
2021/03/28 10:16:12;;;;;;;3.50;0.30;;;11.60;82.40;;;;;;6161708;23;20421;-77
2021/03/28 10:19:11;;;;;;;3.78;0.63;;;11.50;82.90;;;;;;6162282;23;20001;-77
2021/03/28 10:21:55;;;;;;;3.42;0.47;;;11.40;87.40;;;;;;6190779;23;20004;-76
2021/03/28 10:24:43;;;;;;;11.68;0.65;;;11.40;84.20;;;;;;6190044;23;20008;-78
2021/03/28 10:27:27;;;;;;;5.80;0.47;;;11.30;86.10;;;;;;6164786;23;20424;-79
2021/03/28 10:30:27;;;;;;;5.15;0.80;;;11.30;87.70;;;;;;6162652;23;20032;-80
2021/03/28 10:33:12;;;;;;;4.70;0.60;;;11.30;87.10;;;;;;6187572;23;20425;-80
2021/03/28 10:35:56;;;;;;;5.85;0.32;;;11.30;86.20;;;;;;6163626;23;20034;-80
2021/03/28 10:38:38;;;;;;;6.78;0.13;;;11.20;88.30;;;;;;6188351;23;20020;-79
2021/03/28 10:41:30;;;;;;;3.75;0.10;;;11.30;90.20;;;;;;6188974;23;20324;-79
2021/03/28 10:44:17;;;;;;;8.60;0.80;;;11.40;90.10;;;;;;6162189;23;20005;-78
2021/03/28 10:47:11;;;;;;;7.30;0.20;;;11.40;91.20;;;;;;6187545;23;20012;-74
2021/03/28 10:50:14;;;;;;;4.82;0.35;;;11.30;90.60;;;;;;6187316;23;20009;-76
2021/03/28 10:53:04;;;;;;;2.15;0.00;;;11.30;91.20;;;;;;6187999;23;20040;-79
2021/03/28 10:55:48;;;;;;;8.25;0.32;;;11.20;90.80;;;;;;6164258;23;20028;-78
2021/03/28 10:58:44;;;;;;;4.57;0.70;;;11.20;92.10;;;;;;6164083;23;20091;-80
2021/03/28 11:01:57;;;;;;;4.00;0.28;;;11.20;91.50;;;;;;6189014;23;20029;-81
2021/03/28 11:04:51;;;;;;;2.58;0.25;;;11.30;90.70;;;;;;6189712;23;20051;-78
2021/03/28 11:07:49;;;;;;;4.55;1.20;;;11.20;90.30;;;;;;6189701;23;20476;-77
2021/03/28 11:10:43;;;;;;;3.20;0.25;;;11.20;90.20;;;;;;6162061;23;20020;-78
2021/03/28 11:13:46;;;;;;;5.85;0.10;;;11.10;90.10;;;;;;6187806;23;20014;-80
2021/03/28 11:16:41;;;;;;;7.82;1.20;;;11.00;88.40;;;;;;6162091;23;20036;-79
2021/03/28 11:19:44;;;;;;;8.60;0.68;;;11.10;90.70;;;;;;6187206;23;20028;-78
2021/03/28 11:22:44;;;;;;;3.38;0.45;;;11.20;89.30;;;;;;6162159;23;20005;-79
2021/03/28 11:25:17;;;;;;;6.65;0.00;;;11.10;89.30;;;;;;6188667;23;20032;-78
2021/03/28 11:27:51;;;;;;;7.72;0.32;;;11.20;90.00;;;;;;6190197;23;20340;-79
2021/03/28 11:30:40;;;;;;;4.68;0.63;;;11.20;88.70;;;;;;6191195;23;20425;-76
2021/03/28 11:33:20;;;;;;;3.65;0.10;;;11.30;90.40;;;;;;6162556;23;20079;-73
2021/03/28 11:35:55;;;;;;;6.32;0.63;;;11.30;89.70;;;;;;6162086;23;20005;-73
2021/03/28 11:38:20;;;;;;;5.80;0.20;;;11.30;89.00;;;;;;6161579;23;20005;-73
2021/03/28 11:41:13;;;;;;;7.97;0.57;;;11.30;90.20;;;;;;6187260;22;20028;-75
2021/03/28 11:44:00;;;;;;;13.27;1.33;;;11.20;89.70;;;;;;6186334;23;20001;-73
2021/03/28 11:46:34;;;;;;;8.88;0.77;;;11.50;89.50;;;;;;6161861;23;20001;-73
2021/03/28 11:48:59;;;;;;;11.38;1.25;;;11.50;89.10;;;;;;6163558;23;20373;-74
2021/03/28 11:51:37;;;;;;;8.35;1.02;;;11.50;89.70;;;;;;6188005;23;20004;-73
2021/03/28 11:54:19;;;;;;;6.17;0.20;;;11.50;88.90;;;;;;6186833;22;20017;-74
2021/03/28 11:56:51;;;;;;;18.17;0.50;;;11.50;89.20;;;;;;6158924;23;20032;-73
2021/03/28 11:59:19;;;;;;;6.18;0.30;;;11.50;90.00;;;;;;6158879;23;20002;-74
2021/03/28 12:02:02;;;;;;;5.03;0.38;;;11.50;88.20;;;;;;6132927;23;20496;-74
2021/03/28 12:07:18;;;;;;;7.20;0.38;;;11.40;89.10;;;;;;6189307;23;20020;-73
2021/03/28 12:10:16;;;;;;;4.43;0.63;;;10.50;89.10;;;;;;6161645;23;20028;-74
2021/03/28 12:12:47;;;;;;;5.47;0.30;;;11.30;89.50;;;;;;6162774;23;20009;-77
2021/03/28 12:15:43;;;;;;;7.75;0.35;;;11.40;89.00;;;;;;6176901;23;20052;-75
2021/03/28 12:18:24;;;;;;;10.75;1.55;;;11.40;88.50;;;;;;6158849;23;20124;-75
2021/03/28 12:20:59;;;;;;;5.40;0.57;;;11.40;89.20;;;;;;6159292;23;20146;-80
2021/03/28 12:23:48;;;;;;;8.20;0.35;;;11.40;88.80;;;;;;6133827;23;20013;-78
2021/03/28 12:26:25;;;;;;;5.40;0.00;;;11.60;89.60;;;;;;6158720;23;20002;-78
2021/03/28 12:29:05;;;;;;;11.73;0.50;;;11.70;89.40;;;;;;6131355;23;20029;-77
2021/03/28 12:31:48;;;;;;;7.75;0.30;;;11.80;89.00;;;;;;6131451;23;20425;-78
2021/03/28 12:34:38;;;;;;;11.88;0.40;;;12.00;88.00;;;;;;6157954;23;20008;-77
2021/03/28 12:37:10;;;;;;;5.78;0.20;;;12.00;86.60;;;;;;6132308;23;20005;-78
2021/03/28 12:40:04;;;;;;;6.18;0.20;;;12.00;88.20;;;;;;6159844;23;20037;-76
2021/03/28 12:42:46;;;;;;;5.25;0.43;;;12.00;86.60;;;;;;6159908;23;20060;-78
2021/03/28 12:45:11;;;;;;;6.20;0.47;;;12.00;86.10;;;;;;6159375;23;20001;-78
2021/03/28 12:47:49;;;;;;;9.00;0.40;;;11.90;87.40;;;;;;6133646;23;20452;-80
2021/03/28 12:50:14;;;;;;;6.15;0.40;;;11.90;88.70;;;;;;6133939;23;20032;-79
2021/03/28 12:52:48;;;;;;;6.97;0.43;;;11.90;88.20;;;;;;6134048;23;20005;-77
2021/03/28 12:55:24;;;;;;;6.53;0.90;;;11.80;88.60;;;;;;6160773;23;20004;-78
2021/03/28 12:58:10;;;;;;;5.78;0.32;;;11.80;88.60;;;;;;6139159;23;20437;-80
2021/03/28 13:00:43;;;;;;;7.15;0.75;;;11.80;89.40;;;;;;6133577;23;20452;-80
2021/03/28 13:03:24;;;;;;;7.13;0.20;;;11.80;90.00;;;;;;6133283;23;20025;-72
2021/03/28 13:06:26;;;;;;;3.28;0.20;;;11.70;90.10;;;;;;6131519;23;20437;-75
2021/03/28 13:09:00;;;;;;;15.10;1.40;;;11.70;90.50;;;;;;6131879;23;20349;-75
2021/03/28 13:11:49;;;;;;;6.85;0.00;;;11.70;91.20;;;;;;6157129;23;20006;-77
2021/03/28 13:14:36;;;;;;;;;;;11.70;90.60;;;;;;6130209;23;20009;-78
2021/03/28 13:17:09;;;;;;;8.02;0.40;;;11.60;91.00;;;;;;6156226;23;19952;-77
2021/03/28 13:19:38;;;;;;;4.95;0.30;;;11.60;91.10;;;;;;6156563;23;20008;-77
2021/03/28 13:22:25;;;;;;;3.42;0.40;;;11.60;91.40;;;;;;6157520;23;20006;-75
2021/03/28 13:25:13;;;;;;;6.70;0.30;;;11.60;91.20;;;;;;6153622;23;20045;-76
2021/03/28 13:27:39;;;;;;;6.78;0.77;;;11.60;91.90;;;;;;6138211;23;20006;-76
2021/03/28 13:30:06;;;;;;;4.40;1.00;;;11.70;92.00;;;;;;6155878;23;20045;-75
2021/03/28 13:32:39;;;;;;;11.30;0.93;;;11.70;91.90;;;;;;6156747;23;20005;-76
2021/03/28 13:35:08;;;;;;;7.90;0.73;;;11.80;92.10;;;;;;6131437;23;20060;-77
2021/03/28 13:37:49;;;;;;;10.05;0.57;;;11.70;91.70;;;;;;6131447;23;20010;-75
2021/03/28 13:40:15;;;;;;;7.15;0.65;;;11.70;91.90;;;;;;6130527;23;20429;-73
2021/03/28 13:43:02;;;;;;;6.38;0.00;;;11.70;92.00;;;;;;6130666;23;20016;-73
2021/03/28 13:45:35;;;;;;;5.00;0.20;;;11.80;92.60;;;;;;6156785;23;20028;-71
2021/03/28 13:48:07;;;;;;;6.15;0.22;;;11.90;91.70;;;;;;6130547;23;20005;-77
2021/03/28 13:50:46;;;;;;;9.82;1.08;;;11.90;91.00;;;;;;6178556;23;20049;-76
2021/03/28 13:53:20;;;;;;;6.65;0.22;;;12.10;91.70;;;;;;6185130;22;20456;-74
2021/03/28 13:56:03;;;;;;;3.50;0.00;;;12.00;90.20;;;;;;6186922;23;20013;-73
2021/03/28 13:58:41;;;;;;;8.38;0.35;;;12.20;90.90;;;;;;6185053;22;20064;-73
2021/03/28 14:01:10;;;;;;;9.07;0.05;;;12.40;88.80;;;;;;6158527;23;20028;-72
2021/03/28 14:03:38;;;;;;;5.15;0.00;;;12.40;87.30;;;;;;6186406;23;20008;-74
2021/03/28 14:06:25;;;;;;;6.75;0.52;;;12.60;86.20;;;;;;6186723;23;20055;-74
2021/03/28 14:11:33;;;;;;;2.72;0.57;;;13.00;84.90;;;;;;6185244;23;20031;-74
2021/03/28 14:14:21;;;;;;;8.50;0.10;;;12.80;82.00;;;;;;6160029;23;20452;-75
2021/03/28 14:16:50;;;;;;;2.63;0.10;;;14.00;82.60;;;;;;6111914;23;20001;-75
2021/03/28 14:19:42;;;;;;;4.18;0.20;;;13.40;82.60;;;;;;6156773;23;20375;-75
2021/03/28 14:22:22;;;;;;;7.32;0.32;;;13.50;79.90;;;;;;6152616;23;20009;-75
2021/03/28 14:24:54;;;;;;;10.32;1.20;;;13.30;80.30;;;;;;6185522;23;20318;-76
2021/03/28 14:27:33;;;;;;;7.00;0.25;;;13.60;78.40;;;;;;6186212;23;20042;-75
2021/03/28 14:30:04;;;;;;;4.65;0.22;;;13.60;79.00;;;;;;6159472;23;20005;-74
2021/03/28 14:32:32;;;;;;;7.63;0.30;;;13.50;79.70;;;;;;6159845;23;20093;-74
2021/03/28 14:35:28;;;;;;;1.65;0.10;;;13.40;80.00;;;;;;6184641;22;20016;-75
2021/03/28 14:38:00;;;;;;;3.63;0.43;;;13.40;79.70;;;;;;6186225;23;20027;-77
2021/03/28 14:40:44;;;;;;;4.25;0.43;;;13.20;80.00;;;;;;6186498;23;20377;-76
2021/03/28 14:43:35;;;;;;;7.40;0.35;;;13.20;81.40;;;;;;6159580;23;20011;-74